D/T METAR WX W/DIR W/SPE G/SPE TEMP DEWP
21/03/19 07:50 EGNO 210750Z 27012KT 0800 FG BKN002 08/08 Q1031 FG W (270°) 13.8mph 8°C 8°C
21/03/19 07:20 EGNO 210720Z 27007KT 9000 3000NW BCFG FEW003 BKN025 09/09 Q1031 BCFG W (270°) 8.1mph 9°C 9°C
21/03/19 06:50 EGNO 210650Z 27007KT 9999 FEW005 BKN035 09/09 Q1031 W (270°) 8.1mph 9°C 9°C
20/03/19 19:20 EGNO 201920Z VRB01KT 9999 FEW033 09/08 Q1030 N (0°) 1.2mph 9°C 8°C
20/03/19 18:50 EGNO 201850Z 36004KT 9999 FEW040 10/08 Q1030 N (360°) 4.6mph 10°C 8°C
20/03/19 18:20 EGNO 201820Z 35004KT 9999 FEW040 10/08 Q1029 N (350°) 4.6mph 10°C 8°C
20/03/19 17:50 EGNO 201750Z 30005KT 250V340 CAVOK 11/09 Q1029 WNW (300°) 5.8mph 11°C 9°C
20/03/19 17:20 EGNO 201720Z 25006KT 9999 FEW030 11/10 Q1029 WSW (250°) 6.9mph 11°C 10°C
20/03/19 16:50 EGNO 201650Z 24006KT 9999 FEW030 12/10 Q1029 WSW (240°) 6.9mph 12°C 10°C
20/03/19 16:20 EGNO 201620Z 25006KT 9999 FEW030 12/10 Q1029 WSW (250°) 6.9mph 12°C 10°C
20/03/19 15:50 EGNO 201550Z 25008KT 9999 FEW030 12/10 Q1029 WSW (250°) 9.2mph 12°C 10°C
20/03/19 15:20 EGNO 201520Z 25008KT 220V290 9999 FEW030 13/10 Q1029 WSW (250°) 9.2mph 13°C 10°C
20/03/19 14:50 EGNO 201450Z 26009KT 9999 FEW030 13/10 Q1029 W (260°) 10.4mph 13°C 10°C
20/03/19 14:20 EGNO 201420Z 25007KT 9999 FEW030 12/09 Q1029 WSW (250°) 8.1mph 12°C 9°C
20/03/19 13:50 EGNO 201350Z 27008KT 9999 FEW030 12/09 Q1030 W (270°) 9.2mph 12°C 9°C
20/03/19 13:20 EGNO 201320Z 25010KT 9999 FEW008 13/10 Q1030 WSW (250°) 11.5mph 13°C 10°C
20/03/19 12:20 EGNO 201220Z 23005KT 190V280 9999 FEW008 12/10 Q1030 SW (230°) 5.8mph 12°C 10°C
20/03/19 11:50 EGNO 201150Z 17004KT 140V200 9999 FEW007 12/11 Q1030 S (170°) 4.6mph 12°C 11°C
20/03/19 11:20 EGNO 201120Z VRB02KT 9000 SCT008 12/11 Q1030 N (0°) 2.3mph 12°C 11°C
20/03/19 10:50 EGNO 201050Z VRB01KT 9000 BKN006 10/10 Q1030 N (0°) 1.2mph 10°C 10°C
20/03/19 10:20 EGNO 201020Z VRB03KT 9000 BKN004 09/09 Q1030 N (0°) 3.5mph 9°C 9°C
20/03/19 09:50 EGNO 200950Z 28005KT 250V310 7000 BKN004 08/08 Q1030 W (280°) 5.8mph 8°C 8°C
20/03/19 09:20 EGNO 200920Z 26006KT 1500 BR FEW001 BKN002 09/08 Q1030 BR W (260°) 6.9mph 9°C 8°C
20/03/19 08:50 EGNO 200850Z 25007KT 1500 BR BKN003 09/09 Q1030 BR WSW (250°) 8.1mph 9°C 9°C
20/03/19 08:20 EGNO 200820Z 26006KT 0900 FG BKN002 OVC006 09/09 Q1030 FG W (260°) 6.9mph 9°C 9°C
20/03/19 07:50 EGNO 200750Z 26006KT 1100 BR BKN002 09/09 Q1030 BR W (260°) 6.9mph 9°C 9°C
20/03/19 07:20 EGNO 200720Z 22005KT 0300 FG BKN002 08/08 Q1030 FG SW (220°) 5.8mph 8°C 8°C
19/03/19 19:50 EGNO 191950Z 22008KT 9999 FEW006 BKN020 09/09 Q1026 SW (220°) 9.2mph 9°C 9°C
19/03/19 19:20 EGNO 191920Z 24010KT 6000 FEW004 BKN015 09/09 Q1026 WSW (240°) 11.5mph 9°C 9°C
19/03/19 18:50 EGNO 191850Z 24011KT 4000 -RADZ BKN004 OVC018 09/09 Q1026 -RA -DZ WSW (240°) 12.7mph 9°C 9°C
19/03/19 18:20 EGNO 191820Z 25012KT 2000 -RADZ OVC004 09/09 Q1026 -RA -DZ WSW (250°) 13.8mph 9°C 9°C
19/03/19 17:50 EGNO 191750Z 25012KT 2500 -RADZ SCT006 OVC009 09/09 Q1026 -RA -DZ WSW (250°) 13.8mph 9°C 9°C
19/03/19 17:20 EGNO 191720Z 25010KT 2000 -DZ OVC004 09/08 Q1026 -DZ WSW (250°) 11.5mph 9°C 8°C
19/03/19 16:50 EGNO 191650Z 27012KT 3000 -DZ FEW004 OVC008 10/09 Q1025 -DZ W (270°) 13.8mph 10°C 9°C
19/03/19 16:20 EGNO 191620Z 28009KT 9999 BKN015 10/08 Q1025 W (280°) 10.4mph 10°C 8°C
19/03/19 15:50 EGNO 191550Z 27011KT 9999 FEW016 BKN023 10/08 Q1025 W (270°) 12.7mph 10°C 8°C
19/03/19 15:20 EGNO 191520Z 27012KT 9999 FEW020 BKN023 11/08 Q1024 W (270°) 13.8mph 11°C 8°C
19/03/19 14:50 EGNO 191450Z 25011KT 9999 FEW013 BKN025 11/08 Q1024 WSW (250°) 12.7mph 11°C 8°C
19/03/19 14:20 EGNO 191420Z 25010KT 9999 FEW012 BKN028 11/09 Q1024 WSW (250°) 11.5mph 11°C 9°C
19/03/19 13:50 EGNO 191350Z 25010KT 9999 FEW027 BKN037 11/08 Q1024 WSW (250°) 11.5mph 11°C 8°C
19/03/19 13:20 EGNO 191320Z 25011KT 9999 FEW025 BKN037 11/09 Q1025 WSW (250°) 12.7mph 11°C 9°C
19/03/19 12:50 EGNO 191250Z 26010KT 9999 FEW016 BKN025 11/09 Q1025 W (260°) 11.5mph 11°C 9°C
19/03/19 12:20 EGNO 191220Z 25008KT 9999 FEW016 BKN024 10/08 Q1025 WSW (250°) 9.2mph 10°C 8°C
19/03/19 11:50 EGNO 191150Z 25008KT 9999 BKN028 10/08 Q1025 WSW (250°) 9.2mph 10°C 8°C
19/03/19 10:50 EGNO 191050Z 25009KT 9999 FEW010 BKN028 09/09 Q1025 WSW (250°) 10.4mph 9°C 9°C
19/03/19 10:20 EGNO 191020Z 25010KT 8000 FEW004 BKN028 09/09 Q1025 WSW (250°) 11.5mph 9°C 9°C
19/03/19 09:50 EGNO 190950Z 24009KT 8000 SCT007 BKN028 09/09 Q1025 WSW (240°) 10.4mph 9°C 9°C
19/03/19 09:20 EGNO 190920Z 25008KT 7000 BKN004 09/09 Q1024 WSW (250°) 9.2mph 9°C 9°C
19/03/19 08:50 EGNO 190850Z 25008KT 5000 BR BKN003 08/08 Q1024 BR WSW (250°) 9.2mph 8°C 8°C
19/03/19 08:20 EGNO 190820Z 25009KT 5000 BR BKN003 09/09 Q1024 BR WSW (250°) 10.4mph 9°C 9°C
19/03/19 07:50 EGNO 190750Z 25007KT 4000 -DZ BR BKN002 08/08 Q1024 -DZ BR WSW (250°) 8.1mph 8°C 8°C
19/03/19 07:20 EGNO 190720Z 25006KT 3000 -DZ BR BKN002 08/08 Q1024 -DZ BR WSW (250°) 6.9mph 8°C 8°C
18/03/19 18:50 EGNO 181850Z 25005KT 3000 BR BKN002 08/08 Q1020 BR WSW (250°) 5.8mph 8°C 8°C
18/03/19 18:20 EGNO 181820Z 27007KT 4500 BR BKN003 08/08 Q1020 BR W (270°) 8.1mph 8°C 8°C
18/03/19 17:20 EGNO 181720Z 25008KT 7000 BKN004 08/07 Q1020 WSW (250°) 9.2mph 8°C 7°C
18/03/19 16:20 EGNO 181620Z 25010KT 6000 -RA BKN004 08/07 Q1019 -RA WSW (250°) 11.5mph 8°C 7°C
18/03/19 15:50 EGNO 181550Z 25009KT 9999 -RA SCT005 BKN007 08/07 Q1019 -RA WSW (250°) 10.4mph 8°C 7°C
18/03/19 15:20 EGNO 181520Z 24006KT 9000 -RA FEW004 BKN006 07/07 Q1019 -RA WSW (240°) 6.9mph 7°C 7°C
18/03/19 14:20 EGNO 181420Z 26011KT 9999 -SHRA SCT007 BKN021 08/06 Q1019 -SHRA W (260°) 12.7mph 8°C 6°C
18/03/19 13:50 EGNO 181350Z 26011KT 9999 FEW007 BKN020 08/06 Q1019 W (260°) 12.7mph 8°C 6°C
18/03/19 13:20 EGNO 181320Z 26011KT 9999 FEW008 BKN012 08/07 Q1019 W (260°) 12.7mph 8°C 7°C
18/03/19 12:50 EGNO 181250Z 26008KT 9999 FEW008 SCT013 BKN022 07/06 Q1019 W (260°) 9.2mph 7°C 6°C
18/03/19 12:20 EGNO 181220Z 27009KT 9999 FEW008 SCT010 BKN022 07/06 Q1019 W (270°) 10.4mph 7°C 6°C
18/03/19 11:50 EGNO 181150Z 24006KT 9999 FEW008 BKN016 08/06 Q1019 WSW (240°) 6.9mph 8°C 6°C
18/03/19 11:20 EGNO 181120Z 23007KT 200V260 9999 SCT013 BKN024 07/05 Q1019 SW (230°) 8.1mph 7°C 5°C
18/03/19 10:20 EGNO 181020Z 26010KT 9999 -RA FEW012 BKN025 07/04 Q1019 -RA W (260°) 11.5mph 7°C 4°C
18/03/19 09:50 EGNO 180950Z 28010KT 9999 -SHRA FEW012 SCT045 08/04 Q1018 -SHRA W (280°) 11.5mph 8°C 4°C
18/03/19 08:50 EGNO 180850Z 28010KT 9999 VCSH FEW013 SCT032 08/06 Q1018 VCSH W (280°) 11.5mph 8°C 6°C
18/03/19 08:20 EGNO 180820Z 27007KT 9999 VCSH SCT010 BKN032 07/04 Q1017 VCSH W (270°) 8.1mph 7°C 4°C
18/03/19 07:50 EGNO 180750Z 29009KT 9999 -SHRA SCT010 BKN039 07/05 Q1017 -SHRA WNW (290°) 10.4mph 7°C 5°C
18/03/19 06:50 EGNO 180650Z 30007KT 9999 FEW015 BKN036 07/04 Q1017 WNW (300°) 8.1mph 7°C 4°C
15/03/19 19:50 EGNO 151950Z 27012KT 9999 FEW046 08/05 Q1006 W (270°) 13.8mph 8°C 5°C
15/03/19 19:20 EGNO 151920Z 27010KT 9999 FEW046 08/05 Q1007 W (270°) 11.5mph 8°C 5°C
15/03/19 18:50 EGNO 151850Z 26010KT 9999 FEW046 08/05 Q1007 W (260°) 11.5mph 8°C 5°C
15/03/19 18:20 EGNO 151820Z 28015KT CAVOK 08/04 Q1007 W (280°) 17.3mph 8°C 4°C
15/03/19 17:50 EGNO 151750Z 27015KT CAVOK 08/04 Q1006 W (270°) 17.3mph 8°C 4°C
15/03/19 17:20 EGNO 151720Z 28015KT CAVOK 08/05 Q1006 W (280°) 17.3mph 8°C 5°C
15/03/19 16:50 EGNO 151650Z 29016KT 260V330 9999 FEW017 08/04 Q1006 WNW (290°) 18.4mph 8°C 4°C
15/03/19 16:20 EGNO 151620Z 29016KT 9999 FEW017 SCT049 09/05 Q1006 WNW (290°) 18.4mph 9°C 5°C
15/03/19 15:20 EGNO 151520Z 28020G30KT 9999 FEW020 SCT042 10/05 Q1005 W (280°) 23.0mph 34.5mph 10°C 5°C
15/03/19 14:50 EGNO 151450Z 27022KT 9999 FEW036 09/05 Q1004 W (270°) 25.3mph 9°C 5°C
15/03/19 14:20 EGNO 151420Z 28020G30KT 9999 FEW036 10/05 Q1004 W (280°) 23.0mph 34.5mph 10°C 5°C
15/03/19 13:20 EGNO 151320Z 27022KT 9999 FEW014 SCT027 10/05 Q1004 W (270°) 25.3mph 10°C 5°C
15/03/19 12:50 EGNO 151250Z 28023G34KT 9999 FEW014 SCT027 10/05 Q1004 W (280°) 26.5mph 39.1mph 10°C 5°C
15/03/19 12:20 EGNO 151220Z 28022KT 9999 FEW014 SCT027 10/05 Q1004 W (280°) 25.3mph 10°C 5°C
15/03/19 11:50 EGNO 151150Z 28020G31KT 9999 FEW016 SCT028 09/05 Q1004 W (280°) 23.0mph 35.7mph 9°C 5°C
15/03/19 11:20 EGNO 151120Z 30017KT 9999 -SHRA FEW016 SCT028 08/05 Q1003 -SHRA WNW (300°) 19.6mph 8°C 5°C
15/03/19 10:50 EGNO 151050Z 28016KT 9999 FEW046 09/06 Q1003 W (280°) 18.4mph 9°C 6°C
15/03/19 10:20 EGNO 151020Z 28019KT 9999 FEW032 09/06 Q1003 W (280°) 21.9mph 9°C 6°C
15/03/19 09:20 EGNO 150920Z 28020G30KT 9999 FEW032 09/06 Q1002 W (280°) 23.0mph 34.5mph 9°C 6°C
15/03/19 08:20 EGNO 150820Z 27024G36KT 9999 SCT040 09/07 Q1001 W (270°) 27.6mph 41.4mph 9°C 7°C
15/03/19 07:20 EGNO 150720Z 27022KT 9999 FEW015 BKN040 10/07 Q1000 W (270°) 25.3mph 10°C 7°C
15/03/19 06:50 EGNO 150650Z 27021KT 9999 FEW015 BKN042 10/07 Q1000 W (270°) 24.2mph 10°C 7°C
14/03/19 19:20 EGNO 141920Z 27017KT 9999 SCT040 08/06 Q1004 W (270°) 19.6mph 8°C 6°C
14/03/19 18:50 EGNO 141850Z 27017KT 9999 SCT040 08/06 Q1004 W (270°) 19.6mph 8°C 6°C
14/03/19 18:20 EGNO 141820Z 27016KT 9999 SCT040 09/06 Q1004 W (270°) 18.4mph 9°C 6°C
14/03/19 17:50 EGNO 141750Z 26014KT 9999 SCT039 08/06 Q1004 W (260°) 16.1mph 8°C 6°C
14/03/19 17:20 EGNO 141720Z 27012KT 9999 -SHRA SCT034 09/06 Q1004 -SHRA W (270°) 13.8mph 9°C 6°C
14/03/19 16:20 EGNO 141620Z 27016KT 9999 SCT047 09/06 Q1003 W (270°) 18.4mph 9°C 6°C
14/03/19 15:50 EGNO 141550Z 27018KT 9999 FEW027 SCT047 09/06 Q1003 W (270°) 20.7mph 9°C 6°C
14/03/19 15:20 EGNO 141520Z 27017KT 9999 SCT032 BKN040 09/06 Q1003 W (270°) 19.6mph 9°C 6°C
14/03/19 14:50 EGNO 141450Z 27019KT 9999 SCT032 BKN038 09/06 Q1003 W (270°) 21.9mph 9°C 6°C
14/03/19 14:20 EGNO 141420Z 28019KT 9999 SCT032 BKN039 10/05 Q1003 W (280°) 21.9mph 10°C 5°C
14/03/19 13:50 EGNO 141350Z 28019KT 9999 BKN034 10/05 Q1002 W (280°) 21.9mph 10°C 5°C
14/03/19 13:20 EGNO 141320Z 29021KT 9999 BKN038 10/05 Q1002 WNW (290°) 24.2mph 10°C 5°C
14/03/19 12:50 EGNO 141250Z 29022G33KT 9999 BKN034 10/05 Q1002 WNW (290°) 25.3mph 38.0mph 10°C 5°C
14/03/19 12:20 EGNO 141220Z 29020KT 9999 FEW034 10/05 Q1001 WNW (290°) 23.0mph 10°C 5°C
14/03/19 11:50 EGNO 141150Z 29020G30KT 9999 FEW033 10/06 Q1001 WNW (290°) 23.0mph 34.5mph 10°C 6°C
14/03/19 11:20 EGNO 141120Z 29019G29KT 9999 FEW026 10/05 Q1000 WNW (290°) 21.9mph 33.4mph 10°C 5°C
14/03/19 10:50 EGNO 141050Z 30020G32KT 9999 FEW026 10/06 Q0999 WNW (300°) 23.0mph 36.8mph 10°C 6°C
14/03/19 10:20 EGNO 141020Z 30021KT 9999 FEW026 09/05 Q0999 WNW (300°) 24.2mph 9°C 5°C
14/03/19 09:50 EGNO 140950Z 30020KT 8000 VCSH FEW015 SCT041 08/05 Q0998 RESHRA VCSH WNW (300°) 23.0mph 8°C 5°C
14/03/19 09:20 EGNO 140920Z 30021G31KT 9999 FEW028 10/07 Q0998 WNW (300°) 24.2mph 35.7mph 10°C 7°C
14/03/19 08:50 EGNO 140850Z 29019G30KT 9999 FEW034 10/07 Q0997 WNW (290°) 21.9mph 34.5mph 10°C 7°C
14/03/19 08:20 EGNO 140820Z 30022G35KT 9999 VCSH FEW030 10/06 Q0997 VCSH WNW (300°) 25.3mph 40.3mph 10°C 6°C
14/03/19 07:50 EGNO 140750Z 29020KT 9999 VCSH FEW024 09/07 Q0996 VCSH WNW (290°) 23.0mph 9°C 7°C
14/03/19 07:20 EGNO 140720Z 29024G40KT 9999 VCSH FEW024 SCT031 09/07 Q0996 VCSH WNW (290°) 27.6mph 46.0mph 9°C 7°C
13/03/19 19:50 EGNO 131950Z 28018G29KT 9999 -SHRA FEW030 SCT038 07/05 Q1009 -SHRA W (280°) 20.7mph 33.4mph 7°C 5°C
13/03/19 19:20 EGNO 131920Z 28021KT 9999 FEW038 SCT045 08/05 Q1009 W (280°) 24.2mph 8°C 5°C
13/03/19 18:50 EGNO 131850Z 28020KT 9999 FEW038 BKN045 08/05 Q1009 W (280°) 23.0mph 8°C 5°C
13/03/19 18:20 EGNO 131820Z 27017KT 9999 FEW038 BKN045 08/05 Q1009 W (270°) 19.6mph 8°C 5°C
13/03/19 17:50 EGNO 131750Z 27017KT 9999 FEW041 08/04 Q1009 W (270°) 19.6mph 8°C 4°C
13/03/19 17:20 EGNO 131720Z 28017KT 9999 SCT040 08/04 Q1009 W (280°) 19.6mph 8°C 4°C
13/03/19 16:50 EGNO 131650Z 28012KT 9999 SCT041 09/04 Q1009 W (280°) 13.8mph 9°C 4°C
13/03/19 16:20 EGNO 131620Z 29013KT 9999 FEW030 SCT045 08/04 Q1010 WNW (290°) 15.0mph 8°C 4°C
13/03/19 15:50 EGNO 131550Z 28018G28KT 9999 SCT030 BKN040 08/05 Q1009 W (280°) 20.7mph 32.2mph 8°C 5°C
13/03/19 15:20 EGNO 131520Z 29019G29KT 9999 SCT030 BKN040 09/05 Q1008 WNW (290°) 21.9mph 33.4mph 9°C 5°C
13/03/19 14:50 EGNO 131450Z 28021G31KT 9999 SCT030 BKN040 09/05 Q1008 W (280°) 24.2mph 35.7mph 9°C 5°C
13/03/19 14:20 EGNO 131420Z 28020KT 9999 SCT030 BKN043 09/05 Q1008 W (280°) 23.0mph 9°C 5°C
13/03/19 13:50 EGNO 131350Z 30024G34KT 9999 BKN029 10/05 Q1007 WNW (300°) 27.6mph 39.1mph 10°C 5°C
13/03/19 13:20 EGNO 131320Z 29020G31KT 9999 BKN030 09/05 Q1007 WNW (290°) 23.0mph 35.7mph 9°C 5°C
13/03/19 12:50 EGNO 131250Z 29022G33KT 9999 VCSH BKN029 10/05 Q1007 VCSH WNW (290°) 25.3mph 38.0mph 10°C 5°C
13/03/19 12:20 EGNO 131220Z 30023G35KT 270V330 9999 VCSH BKN030 09/05 Q1006 VCSH WNW (300°) 26.5mph 40.3mph 9°C 5°C
13/03/19 11:50 EGNO 131150Z 30023G33KT 9999 VCSH BKN030 09/05 Q1005 VCSH WNW (300°) 26.5mph 38.0mph 9°C 5°C
13/03/19 11:20 EGNO 131120Z 30021G35KT 9999 VCSH FEW018 BKN030 09/04 Q1005 VCSH WNW (300°) 24.2mph 40.3mph 9°C 4°C
13/03/19 10:20 EGNO 131020Z 29024KT 9999 VCSH FEW018 BKN030 08/05 Q1003 VCSH WNW (290°) 27.6mph 8°C 5°C
13/03/19 09:20 EGNO 130920Z 30024G36KT 6000 -SHRA SCT026 BKN031 08/05 Q1002 -SHRA WNW (300°) 27.6mph 41.4mph 8°C 5°C
13/03/19 08:50 EGNO 130850Z 29022G33KT 9999 VCSH SCT023 BKN031 08/05 Q1001 VCSH WNW (290°) 25.3mph 38.0mph 8°C 5°C
13/03/19 08:20 EGNO 130820Z 29023G36KT 9999 VCSH SCT018 BKN028 08/05 Q1000 VCSH WNW (290°) 26.5mph 41.4mph 8°C 5°C
13/03/19 07:20 EGNO 130720Z 29023G38KT 9999 SCT037 07/05 Q0999 WNW (290°) 26.5mph 43.7mph 7°C 5°C
13/03/19 06:50 EGNO 130650Z 29027G42KT 9999 SCT020 07/05 Q0998 WNW (290°) 31.1mph 48.3mph 7°C 5°C
12/03/19 19:50 EGNO 121950Z 24026G36KT 9999 FEW028 BKN042 07/03 Q0993 WSW (240°) 29.9mph 41.4mph 7°C 3°C
12/03/19 19:20 EGNO 121920Z 24025G35KT 9999 BKN038 07/03 Q0993 WSW (240°) 28.8mph 40.3mph 7°C 3°C
12/03/19 18:50 EGNO 121850Z 24023G34KT 9999 BKN042 07/03 Q0994 WSW (240°) 26.5mph 39.1mph 7°C 3°C